createdAt,value
2023-05-09T00:01:40.985Z,101041.38
2023-05-09T00:04:44.524Z,101041.38
2023-05-09T00:07:49.315Z,101044.97
2023-05-09T00:10:53.834Z,101043.47
2023-05-09T00:13:57.514Z,101035.72
2023-05-09T00:17:00.859Z,101039.25
2023-05-09T00:20:06.053Z,101036.72
2023-05-09T00:23:10.282Z,101029.66
2023-05-09T00:26:16.432Z,101020.34
2023-05-09T00:29:19.573Z,101029.84
2023-05-09T00:32:22.284Z,101032.28
2023-05-09T00:35:25.219Z,101026.16
2023-05-09T00:38:31.176Z,101024.47
2023-05-09T00:41:33.436Z,101025.66
2023-05-09T00:44:36.777Z,101021.28
2023-05-09T00:47:40.219Z,101020.63
2023-05-09T00:50:42.959Z,101019.78
2023-05-09T00:53:47.926Z,101019.38
2023-05-09T00:56:51.765Z,101014.91
2023-05-09T00:59:56.180Z,101023.75
2023-05-09T01:03:00.428Z,101023.66
2023-05-09T01:06:12.093Z,101021.38
2023-05-09T01:09:30.235Z,101024.91
2023-05-09T01:12:50.868Z,101019.84
2023-05-09T01:16:02.160Z,101016.00
2023-05-09T01:19:17.379Z,101021.44
2023-05-09T01:22:21.627Z,101013.72
2023-05-09T01:25:36.761Z,101016.81
2023-05-09T01:28:43.242Z,101014.75
2023-05-09T01:31:48.375Z,101019.19
2023-05-09T01:34:53.411Z,101014.19
2023-05-09T01:37:58.754Z,101011.69
2023-05-09T01:41:06.054Z,101013.41
2023-05-09T01:44:11.817Z,101010.81
2023-05-09T01:47:18.289Z,101003.34
2023-05-09T01:50:22.823Z,100997.38
2023-05-09T01:53:28.455Z,101005.69
2023-05-09T01:56:32.608Z,101007.34
2023-05-09T01:59:36.911Z,100998.88
2023-05-09T02:02:41.399Z,100999.03
2023-05-09T02:05:45.577Z,100991.91
2023-05-09T02:08:50.103Z,100989.03
2023-05-09T02:11:55.331Z,100995.25
2023-05-09T02:14:59.588Z,100993.31
2023-05-09T02:18:03.484Z,100990.28
2023-05-09T02:21:06.772Z,100993.88
2023-05-09T02:24:11.592Z,100980.03
2023-05-09T02:27:16.319Z,100987.41
2023-05-09T02:30:21.693Z,100986.56
2023-05-09T02:33:28.444Z,100986.78
2023-05-09T02:36:32.132Z,100982.97
2023-05-09T02:39:36.884Z,100977.94
2023-05-09T02:42:41.389Z,100976.88
2023-05-09T02:45:44.519Z,100971.22
2023-05-09T02:48:47.784Z,100974.50
2023-05-09T02:51:50.601Z,100980.88
2023-05-09T02:54:52.869Z,100973.44
2023-05-09T02:58:09.223Z,100980.25
2023-05-09T03:04:56.183Z,100972.53
2023-05-09T03:08:01.266Z,100965.66
2023-05-09T03:11:04.748Z,100969.16
2023-05-09T03:14:09.162Z,100969.25
2023-05-09T03:17:11.561Z,100971.16
2023-05-09T03:20:14.518Z,100965.81
2023-05-09T03:23:17.359Z,100960.84
2023-05-09T03:26:23.859Z,100965.44
2023-05-09T03:29:27.416Z,100962.44
2023-05-09T03:32:34.255Z,100969.25
2023-05-09T03:35:38.358Z,100974.06
2023-05-09T03:38:42.063Z,100966.19
2023-05-09T03:41:44.911Z,100975.75
2023-05-09T03:44:48.147Z,100975.87
2023-05-09T03:47:53.098Z,100978.19
2023-05-09T03:50:58.022Z,100977.81
2023-05-09T03:54:02.013Z,100979.47
2023-05-09T03:57:06.130Z,100984.62
2023-05-09T04:00:13.024Z,100979.66
2023-05-09T04:03:17.015Z,100992.25
2023-05-09T04:06:20.660Z,100988.97
2023-05-09T04:09:24.080Z,100976.28
2023-05-09T04:12:27.736Z,100985.34
2023-05-09T04:15:32.164Z,100985.06
2023-05-09T04:18:35.395Z,100986.13
2023-05-09T04:21:41.739Z,100985.03
2023-05-09T04:24:46.664Z,100991.44
2023-05-09T04:27:50.271Z,100991.19
2023-05-09T04:30:55.516Z,100987.78
2023-05-09T04:34:00.168Z,100984.84
2023-05-09T04:37:04.255Z,100982.84
2023-05-09T04:40:10.214Z,100979.72
2023-05-09T04:43:13.124Z,100993.09
2023-05-09T04:46:19.123Z,100996.06
2023-05-09T04:49:30.251Z,101012.03
2023-05-09T04:52:32.950Z,101003.91
2023-05-09T04:55:39.106Z,100992.13
2023-05-09T04:58:42.795Z,101002.56
2023-05-09T05:01:46.009Z,100997.47
2023-05-09T05:04:50.783Z,100994.19
2023-05-09T05:07:58.005Z,100998.94
2023-05-09T05:11:02.437Z,101001.59
2023-05-09T05:14:06.896Z,101005.47
2023-05-09T05:17:10.044Z,100998.50
2023-05-09T05:20:20.410Z,101011.22
2023-05-09T05:23:24.145Z,101002.13
2023-05-09T05:26:27.716Z,101007.44
2023-05-09T05:29:31.675Z,101012.19
2023-05-09T05:32:36.497Z,101013.06
2023-05-09T05:35:42.932Z,101011.78
2023-05-09T05:38:53.202Z,101016.72
2023-05-09T05:42:01.163Z,101004.16
2023-05-09T05:45:08.539Z,101004.25
2023-05-09T05:48:11.856Z,101008.69
2023-05-09T05:51:15.514Z,101008.69
2023-05-09T05:54:25.329Z,100999.69
2023-05-09T05:57:33.845Z,101009.75
2023-05-09T06:00:38.971Z,101016.31
2023-05-09T06:03:41.969Z,101013.50
2023-05-09T06:06:47.622Z,101013.59
2023-05-09T06:09:51.452Z,101012.31
2023-05-09T06:12:58.444Z,101014.59
2023-05-09T06:16:18.629Z,101013.50
2023-05-09T06:19:24.462Z,101014.56
2023-05-09T06:22:31.595Z,101011.41
2023-05-09T06:25:34.448Z,101016.31
2023-05-09T06:28:38.446Z,101009.72
2023-05-09T06:31:47.647Z,101005.56
2023-05-09T06:34:51.893Z,100999.59
2023-05-09T06:37:56.130Z,101002.31
2023-05-09T06:40:59.198Z,100994.25
2023-05-09T06:44:03.639Z,101004.00
2023-05-09T06:47:07.412Z,100995.50
2023-05-09T06:50:11.762Z,100987.38
2023-05-09T06:53:17.017Z,100987.69
2023-05-09T06:56:23.383Z,100986.88
2023-05-09T06:59:28.767Z,100986.50
2023-05-09T07:02:32.081Z,100987.34
2023-05-09T07:05:35.452Z,100977.31
2023-05-09T07:08:40.251Z,100982.94
2023-05-09T07:11:42.989Z,100983.31
2023-05-09T07:14:48.158Z,100983.72
2023-05-09T07:17:51.061Z,100976.75
2023-05-09T07:20:54.217Z,100985.00
2023-05-09T07:23:56.828Z,100982.84
2023-05-09T07:30:17.533Z,100980.81
2023-05-09T07:33:32.933Z,100986.53
2023-05-09T07:39:41.983Z,100986.69
2023-05-09T07:43:15.558Z,100991.69
2023-05-09T07:46:31.909Z,100982.63
2023-05-09T07:49:35.243Z,100983.28
2023-05-09T07:52:38.564Z,100988.88
2023-05-09T07:55:43.537Z,100987.19
2023-05-09T07:58:49.382Z,100979.00
2023-05-09T08:01:52.734Z,100969.72
2023-05-09T08:04:55.755Z,100963.53
2023-05-09T08:08:04.571Z,100945.03
2023-05-09T08:11:08.251Z,100945.37
2023-05-09T08:14:15.486Z,100939.59
2023-05-09T08:17:18.573Z,100934.16
2023-05-09T08:20:22.081Z,100933.47
2023-05-09T08:23:27.057Z,100919.09
2023-05-09T08:26:29.999Z,100923.19
2023-05-09T08:29:37.177Z,100921.66
2023-05-09T08:32:42.036Z,100923.44
2023-05-09T08:35:47.470Z,100917.72
2023-05-09T08:38:52.108Z,100929.47
2023-05-09T08:41:59.887Z,100919.34
2023-05-09T08:45:07.494Z,100924.19
2023-05-09T08:48:10.911Z,100917.78
2023-05-09T08:51:14.864Z,100912.78
2023-05-09T08:54:22.784Z,100912.06
2023-05-09T08:57:28.052Z,100918.22
2023-05-09T09:00:32.797Z,100905.44
2023-05-09T09:03:39.236Z,100894.72
2023-05-09T09:06:42.431Z,100894.59
2023-05-09T09:09:49.085Z,100889.47
2023-05-09T09:12:59.578Z,100893.72
2023-05-09T09:16:03.900Z,100884.66
2023-05-09T09:19:09.557Z,100884.59
2023-05-09T09:22:16.278Z,100880.97
2023-05-09T09:25:22.172Z,100886.53
2023-05-09T09:28:28.688Z,100878.66
2023-05-09T09:31:33.904Z,100880.53
2023-05-09T09:34:44.369Z,100876.44
2023-05-09T09:44:36.034Z,100877.91
2023-05-09T09:47:40.557Z,100878.22
2023-05-09T09:50:44.551Z,100886.03
2023-05-09T09:53:51.129Z,100869.25
2023-05-09T09:56:55.269Z,100872.62
2023-05-09T10:00:01.943Z,100868.63
2023-05-09T10:03:05.122Z,100876.56
2023-05-09T10:06:16.089Z,100867.69
2023-05-09T10:09:19.516Z,100866.25
2023-05-09T10:12:25.241Z,100855.66
2023-05-09T10:15:35.682Z,100857.87
2023-05-09T10:18:45.414Z,100856.31
2023-05-09T10:21:53.676Z,100854.09
2023-05-09T10:25:05.311Z,100845.69
2023-05-09T10:28:16.124Z,100853.78
2023-05-09T10:31:29.667Z,100856.94
2023-05-09T10:34:34.473Z,100846.66
2023-05-09T10:37:37.195Z,100851.91
2023-05-09T10:40:41.600Z,100846.41
2023-05-09T10:43:44.529Z,100856.47
2023-05-09T10:46:48.302Z,100849.81
2023-05-09T10:49:51.280Z,100849.81
2023-05-09T10:53:09.371Z,100844.59
2023-05-09T10:56:25.906Z,100851.81
2023-05-09T10:59:44.589Z,100843.87
2023-05-09T11:03:07.429Z,100840.13
2023-05-09T11:06:11.755Z,100842.44
2023-05-09T11:09:42.156Z,100839.91
2023-05-09T11:12:57.514Z,100845.44
2023-05-09T11:16:06.361Z,100830.66
2023-05-09T11:19:09.041Z,100819.19
2023-05-09T11:22:17.364Z,100818.12
2023-05-09T11:25:26.123Z,100816.78
2023-05-09T11:28:38.501Z,100814.34
2023-05-09T11:32:00.879Z,100798.25
2023-05-09T11:35:10.733Z,100803.00
2023-05-09T11:38:22.400Z,100806.44
2023-05-09T11:41:29.018Z,100808.34
2023-05-09T11:44:41.596Z,100805.84
2023-05-09T11:47:48.004Z,100804.94
2023-05-09T11:50:50.677Z,100805.56
2023-05-09T11:53:54.442Z,100797.34
2023-05-09T11:57:01.952Z,100790.69
2023-05-09T12:00:08.317Z,100789.47
2023-05-09T12:03:11.371Z,100788.34
2023-05-09T12:06:18.497Z,100786.41
2023-05-09T12:09:21.716Z,100773.50
2023-05-09T12:12:24.317Z,100778.22
2023-05-09T12:15:31.894Z,100775.41
2023-05-09T12:18:36.130Z,100770.34
2023-05-09T12:21:40.457Z,100773.84
2023-05-09T12:24:42.996Z,100777.03
2023-05-09T12:27:50.534Z,100765.31
2023-05-09T12:30:53.875Z,100764.69
2023-05-09T12:37:20.790Z,100752.91
2023-05-09T12:40:30.484Z,100750.84
2023-05-09T12:43:40.554Z,100753.97
2023-05-09T12:46:58.882Z,100744.75
2023-05-09T12:50:04.328Z,100735.34
2023-05-09T12:53:07.252Z,100727.09
2023-05-09T12:56:18.627Z,100731.31
2023-05-09T12:59:24.615Z,100721.41
2023-05-09T13:02:29.046Z,100725.69
2023-05-09T13:05:35.081Z,100713.56
2023-05-09T13:08:37.672Z,100725.47
2023-05-09T13:11:41.505Z,100712.63
2023-05-09T13:14:50.788Z,100718.84
2023-05-09T13:17:53.730Z,100704.94
2023-05-09T13:21:01.244Z,100713.75
2023-05-09T13:24:05.470Z,100698.00
2023-05-09T13:27:08.032Z,100701.44
2023-05-09T13:30:15.800Z,100708.94
2023-05-09T13:33:25.936Z,100698.50
2023-05-09T13:36:29.394Z,100695.94
2023-05-09T13:39:34.380Z,100702.81
2023-05-09T13:42:38.428Z,100695.91
2023-05-09T13:45:40.961Z,100686.88
2023-05-09T13:48:50.171Z,100694.47
2023-05-09T13:51:52.889Z,100684.41
2023-05-09T13:54:56.487Z,100678.00
2023-05-09T13:57:58.661Z,100676.72
2023-05-09T14:01:01.248Z,100671.50
2023-05-09T14:04:03.753Z,100661.28
2023-05-09T14:07:11.821Z,100652.75
2023-05-09T14:10:15.373Z,100652.22
2023-05-09T14:13:18.047Z,100646.44
2023-05-09T14:16:21.268Z,100650.66
2023-05-09T14:19:26.748Z,100647.72
2023-05-09T14:22:30.859Z,100653.44
2023-05-09T14:25:36.429Z,100656.78
2023-05-09T14:28:38.859Z,100653.13
2023-05-09T14:31:42.551Z,100647.09
2023-05-09T14:34:47.035Z,100641.59
2023-05-09T14:37:49.211Z,100640.63
2023-05-09T14:40:54.308Z,100635.94
2023-05-09T14:43:58.458Z,100637.34
2023-05-09T14:47:03.072Z,100637.63
2023-05-09T14:50:07.742Z,100634.56
2023-05-09T14:53:14.646Z,100633.22
2023-05-09T14:56:16.995Z,100632.38
2023-05-09T14:59:23.039Z,100624.91
2023-05-09T15:02:27.246Z,100620.13
2023-05-09T15:05:29.568Z,100618.41
2023-05-09T15:08:35.401Z,100607.53
2023-05-09T15:11:47.415Z,100621.13
2023-05-09T15:14:54.147Z,100610.03
2023-05-09T15:17:56.940Z,100608.53
2023-05-09T15:21:01.202Z,100611.66
2023-05-09T15:24:06.470Z,100605.34
2023-05-09T15:27:09.997Z,100600.53
2023-05-09T15:30:14.354Z,100594.88
2023-05-09T15:33:18.092Z,100589.37
2023-05-09T15:36:20.863Z,100597.28
2023-05-09T15:39:23.435Z,100595.31
2023-05-09T15:42:27.053Z,100592.00
2023-05-09T15:45:29.278Z,100589.72
2023-05-09T15:48:31.148Z,100590.31
2023-05-09T15:51:33.290Z,100586.25
2023-05-09T15:54:37.536Z,100580.44
2023-05-09T15:57:40.465Z,100579.09
2023-05-09T16:00:45.602Z,100570.88
2023-05-09T16:03:48.137Z,100570.66
2023-05-09T16:06:54.990Z,100562.47
2023-05-09T16:09:57.128Z,100559.47
2023-05-09T16:13:02.840Z,100567.78
2023-05-09T16:16:06.543Z,100564.88
2023-05-09T16:19:09.793Z,100554.03
2023-05-09T16:22:16.814Z,100563.56
2023-05-09T16:25:21.554Z,100568.84
2023-05-09T16:28:25.408Z,100565.78
2023-05-09T16:31:33.956Z,100566.97
2023-05-09T16:34:38.224Z,100560.00
2023-05-09T16:37:43.842Z,100563.88
2023-05-09T16:40:48.667Z,100557.81
2023-05-09T16:43:51.063Z,100555.00
2023-05-09T16:46:54.228Z,100555.31
2023-05-09T16:49:56.921Z,100546.88
2023-05-09T16:53:04.929Z,100545.53
2023-05-09T16:56:08.012Z,100546.53
2023-05-09T16:59:13.921Z,100542.69
2023-05-09T17:02:17.277Z,100532.53
2023-05-09T17:05:24.798Z,100539.13
2023-05-09T17:08:27.659Z,100531.34
2023-05-09T17:11:31.253Z,100537.28
2023-05-09T17:14:36.090Z,100533.66
2023-05-09T17:17:39.769Z,100535.47
2023-05-09T17:20:46.223Z,100534.25
2023-05-09T17:23:50.683Z,100539.25
2023-05-09T17:26:57.143Z,100535.37
2023-05-09T17:30:04.616Z,100529.72
2023-05-09T17:33:09.755Z,100535.03
2023-05-09T17:36:12.505Z,100535.09
2023-05-09T17:39:17.855Z,100530.38
2023-05-09T17:42:21.772Z,100527.72
2023-05-09T17:45:26.410Z,100532.75
2023-05-09T17:48:29.904Z,100529.84
2023-05-09T17:51:35.567Z,100531.41
2023-05-09T17:54:38.249Z,100531.13
2023-05-09T17:57:47.783Z,100519.22
2023-05-09T18:00:52.927Z,100525.06
2023-05-09T18:03:58.676Z,100534.22
2023-05-09T18:07:04.543Z,100530.88
2023-05-09T18:10:13.140Z,100533.38
2023-05-09T18:13:21.450Z,100536.28
2023-05-09T18:16:31.117Z,100529.47
2023-05-09T18:19:35.552Z,100532.50
2023-05-09T18:22:44.052Z,100541.06
2023-05-09T18:25:51.360Z,100542.00
2023-05-09T18:28:53.797Z,100544.03
2023-05-09T18:32:03.208Z,100541.81
2023-05-09T18:35:05.757Z,100539.69
2023-05-09T18:38:25.965Z,100547.41
2023-05-09T18:41:36.985Z,100549.34
2023-05-09T18:44:50.095Z,100549.16
2023-05-09T18:47:57.783Z,100557.28
2023-05-09T18:51:06.878Z,100554.31
2023-05-09T18:54:10.165Z,100554.03
2023-05-09T18:57:49.958Z,100553.59
2023-05-09T19:00:53.724Z,100555.44
2023-05-09T19:04:05.489Z,100558.87
2023-05-09T19:07:10.391Z,100566.91
2023-05-09T19:10:35.151Z,100561.28
2023-05-09T19:13:43.028Z,100564.59
2023-05-09T19:16:53.420Z,100561.41
2023-05-09T19:19:59.434Z,100564.12
2023-05-09T19:23:02.119Z,100560.94
2023-05-09T19:26:06.487Z,100563.47
2023-05-09T19:29:22.308Z,100555.25
2023-05-09T19:32:30.549Z,100555.37
2023-05-09T19:35:33.633Z,100555.25
2023-05-09T19:38:36.026Z,100556.69
2023-05-09T19:41:52.647Z,100560.94
2023-05-09T19:44:58.047Z,100562.09
2023-05-09T19:48:01.310Z,100555.13
2023-05-09T19:51:04.431Z,100550.81
2023-05-09T19:54:10.167Z,100557.03
2023-05-09T19:57:13.855Z,100554.31
2023-05-09T20:00:22.949Z,100556.94
2023-05-09T20:03:28.933Z,100548.75
2023-05-09T20:06:36.708Z,100544.91
2023-05-09T20:09:38.978Z,100536.47
2023-05-09T20:12:43.077Z,100541.53
2023-05-09T20:15:49.033Z,100538.28
2023-05-09T20:18:52.676Z,100546.31
2023-05-09T20:22:02.897Z,100540.44
2023-05-09T20:25:08.941Z,100541.78
2023-05-09T20:28:24.819Z,100543.00
2023-05-09T20:31:30.960Z,100536.00
2023-05-09T20:34:44.081Z,100536.31
2023-05-09T20:37:46.875Z,100536.00
2023-05-09T20:40:54.411Z,100538.63
2023-05-09T20:44:09.305Z,100534.56
2023-05-09T20:47:14.882Z,100526.59
2023-05-09T20:50:34.720Z,100524.69
2023-05-09T20:53:43.561Z,100521.03
2023-05-09T20:56:51.884Z,100518.44
2023-05-09T20:59:56.896Z,100511.41
2023-05-09T21:03:04.446Z,100522.38
2023-05-09T21:06:08.727Z,100516.91
2023-05-09T21:09:13.758Z,100508.41
2023-05-09T21:12:28.244Z,100508.81
2023-05-09T21:15:39.367Z,100511.78
2023-05-09T21:22:21.409Z,100509.88
2023-05-09T21:25:34.913Z,100504.25
2023-05-09T21:28:38.238Z,100510.22
2023-05-09T21:31:46.291Z,100503.31
2023-05-09T21:34:49.012Z,100495.22
2023-05-09T21:37:54.669Z,100497.00
2023-05-09T21:41:04.532Z,100502.81
2023-05-09T21:44:09.486Z,100505.28
2023-05-09T21:47:31.577Z,100508.75
2023-05-09T21:50:35.132Z,100506.72
2023-05-09T21:53:45.818Z,100502.66
2023-05-09T21:57:00.741Z,100502.31
2023-05-09T22:00:06.477Z,100494.41
2023-05-09T22:03:09.388Z,100501.19
2023-05-09T22:06:13.870Z,100498.31
2023-05-09T22:09:21.265Z,100505.47
2023-05-09T22:12:33.379Z,100501.41
2023-05-09T22:15:39.968Z,100504.84
2023-05-09T22:18:45.392Z,100500.44
2023-05-09T22:21:48.949Z,100498.25
2023-05-09T22:25:03.242Z,100501.37
2023-05-09T22:28:06.343Z,100499.13
2023-05-09T22:31:09.539Z,100500.91
2023-05-09T22:34:13.266Z,100498.53
2023-05-09T22:37:27.489Z,100495.19
2023-05-09T22:40:32.299Z,100500.94
2023-05-09T22:43:39.144Z,100502.06
2023-05-09T22:46:43.160Z,100504.09
2023-05-09T22:49:51.040Z,100499.09
2023-05-09T22:52:55.241Z,100497.28
2023-05-09T22:55:58.874Z,100494.91
2023-05-09T22:59:12.191Z,100492.75
2023-05-09T23:02:16.766Z,100492.66
2023-05-09T23:05:23.420Z,100492.06
2023-05-09T23:09:05.121Z,100485.75
2023-05-09T23:12:11.620Z,100488.84
2023-05-09T23:15:14.596Z,100487.44
2023-05-09T23:18:19.128Z,100486.62
2023-05-09T23:21:23.369Z,100491.84
2023-05-09T23:24:33.043Z,100482.66
2023-05-09T23:27:38.310Z,100484.94
2023-05-09T23:30:55.186Z,100480.87
2023-05-09T23:34:06.384Z,100483.72
2023-05-09T23:37:09.008Z,100479.78
2023-05-09T23:40:13.876Z,100477.78
2023-05-09T23:43:26.152Z,100479.50
2023-05-09T23:46:34.288Z,100476.16
2023-05-09T23:49:44.660Z,100470.00
2023-05-09T23:52:58.243Z,100477.03
2023-05-09T23:56:13.194Z,100462.62
2023-05-09T23:59:28.522Z,100465.25
